sensor_id;sensor_type;location;lat;lon;timestamp;temperature;humidity
13572;DHT22;6857;53.484;10.216;2024-03-06T00:00:34;5.50;99.90
13572;DHT22;6857;53.484;10.216;2024-03-06T00:03:00;5.50;99.90
13572;DHT22;6857;53.484;10.216;2024-03-06T00:05:26;5.50;99.90
13572;DHT22;6857;53.484;10.216;2024-03-06T00:07:51;5.50;99.90
13572;DHT22;6857;53.484;10.216;2024-03-06T00:10:17;5.50;99.90
13572;DHT22;6857;53.484;10.216;2024-03-06T00:12:42;5.50;99.90
13572;DHT22;6857;53.484;10.216;2024-03-06T00:15:08;5.50;99.90
13572;DHT22;6857;53.484;10.216;2024-03-06T00:17:33;5.50;99.90
13572;DHT22;6857;53.484;10.216;2024-03-06T00:19:59;5.50;99.90
13572;DHT22;6857;53.484;10.216;2024-03-06T00:22:24;5.50;99.90
13572;DHT22;6857;53.484;10.216;2024-03-06T00:24:51;5.50;99.90
13572;DHT22;6857;53.484;10.216;2024-03-06T00:27:17;5.50;99.90
13572;DHT22;6857;53.484;10.216;2024-03-06T00:29:42;5.40;99.90
13572;DHT22;6857;53.484;10.216;2024-03-06T00:32:08;5.50;99.90
13572;DHT22;6857;53.484;10.216;2024-03-06T00:34:33;5.40;99.90
13572;DHT22;6857;53.484;10.216;2024-03-06T00:36:59;5.40;99.90
13572;DHT22;6857;53.484;10.216;2024-03-06T00:39:24;5.40;99.90
13572;DHT22;6857;53.484;10.216;2024-03-06T00:41:50;5.50;99.90
13572;DHT22;6857;53.484;10.216;2024-03-06T00:44:15;5.50;99.90
13572;DHT22;6857;53.484;10.216;2024-03-06T00:46:42;5.50;99.90
13572;DHT22;6857;53.484;10.216;2024-03-06T00:49:08;5.50;99.90
13572;DHT22;6857;53.484;10.216;2024-03-06T00:51:34;5.40;99.90
13572;DHT22;6857;53.484;10.216;2024-03-06T00:54:02;5.50;99.90
13572;DHT22;6857;53.484;10.216;2024-03-06T00:56:28;5.50;99.90
13572;DHT22;6857;53.484;10.216;2024-03-06T00:58:53;5.50;99.90
13572;DHT22;6857;53.484;10.216;2024-03-06T01:01:19;5.40;99.90
13572;DHT22;6857;53.484;10.216;2024-03-06T01:03:45;5.50;99.90
13572;DHT22;6857;53.484;10.216;2024-03-06T01:06:10;5.50;99.90
13572;DHT22;6857;53.484;10.216;2024-03-06T01:08:36;5.50;99.90
13572;DHT22;6857;53.484;10.216;2024-03-06T01:11:01;5.40;99.90
13572;DHT22;6857;53.484;10.216;2024-03-06T01:13:27;5.50;99.90
13572;DHT22;6857;53.484;10.216;2024-03-06T01:15:53;5.40;99.90
13572;DHT22;6857;53.484;10.216;2024-03-06T01:18:19;5.50;99.90
13572;DHT22;6857;53.484;10.216;2024-03-06T01:20:44;5.50;99.90
13572;DHT22;6857;53.484;10.216;2024-03-06T01:23:10;5.60;99.90
13572;DHT22;6857;53.484;10.216;2024-03-06T01:25:35;5.50;99.90
13572;DHT22;6857;53.484;10.216;2024-03-06T01:28:02;5.50;99.90
13572;DHT22;6857;53.484;10.216;2024-03-06T01:30:27;5.50;99.90
13572;DHT22;6857;53.484;10.216;2024-03-06T01:32:53;5.70;99.90
13572;DHT22;6857;53.484;10.216;2024-03-06T01:35:19;5.40;99.90
13572;DHT22;6857;53.484;10.216;2024-03-06T01:37:44;5.40;99.90
13572;DHT22;6857;53.484;10.216;2024-03-06T01:40:11;5.40;99.90
13572;DHT22;6857;53.484;10.216;2024-03-06T01:42:37;5.40;99.90
13572;DHT22;6857;53.484;10.216;2024-03-06T01:45:03;5.40;99.90
13572;DHT22;6857;53.484;10.216;2024-03-06T01:47:29;5.40;99.90
13572;DHT22;6857;53.484;10.216;2024-03-06T01:49:55;5.50;99.90
13572;DHT22;6857;53.484;10.216;2024-03-06T01:52:21;5.50;99.90
13572;DHT22;6857;53.484;10.216;2024-03-06T01:54:48;5.40;99.90
13572;DHT22;6857;53.484;10.216;2024-03-06T01:57:15;5.40;99.90
13572;DHT22;6857;53.484;10.216;2024-03-06T01:59:43;5.30;99.90
13572;DHT22;6857;53.484;10.216;2024-03-06T02:02:08;5.40;99.90
13572;DHT22;6857;53.484;10.216;2024-03-06T02:04:39;5.40;99.90
13572;DHT22;6857;53.484;10.216;2024-03-06T02:07:09;5.40;99.90
13572;DHT22;6857;53.484;10.216;2024-03-06T02:09:38;5.30;99.90
13572;DHT22;6857;53.484;10.216;2024-03-06T02:12:05;5.30;99.90
13572;DHT22;6857;53.484;10.216;2024-03-06T02:14:31;5.30;99.90
13572;DHT22;6857;53.484;10.216;2024-03-06T02:16:56;5.30;99.90
13572;DHT22;6857;53.484;10.216;2024-03-06T02:19:22;5.20;99.90
13572;DHT22;6857;53.484;10.216;2024-03-06T02:21:48;5.20;99.90
13572;DHT22;6857;53.484;10.216;2024-03-06T02:24:13;5.20;99.90
13572;DHT22;6857;53.484;10.216;2024-03-06T02:26:39;5.20;99.90
13572;DHT22;6857;53.484;10.216;2024-03-06T02:29:06;5.10;99.90
13572;DHT22;6857;53.484;10.216;2024-03-06T02:31:32;5.10;99.90
13572;DHT22;6857;53.484;10.216;2024-03-06T02:33:58;5.10;99.90
13572;DHT22;6857;53.484;10.216;2024-03-06T02:36:24;5.10;99.90
13572;DHT22;6857;53.484;10.216;2024-03-06T02:38:49;5.10;99.90
13572;DHT22;6857;53.484;10.216;2024-03-06T02:41:15;5.20;99.90
13572;DHT22;6857;53.484;10.216;2024-03-06T02:43:41;5.10;99.90
13572;DHT22;6857;53.484;10.216;2024-03-06T02:46:07;5.10;99.90
13572;DHT22;6857;53.484;10.216;2024-03-06T02:48:33;5.10;99.90
13572;DHT22;6857;53.484;10.216;2024-03-06T02:50:59;5.10;99.90
13572;DHT22;6857;53.484;10.216;2024-03-06T02:53:25;5.10;99.90
13572;DHT22;6857;53.484;10.216;2024-03-06T02:55:53;5.10;99.90
13572;DHT22;6857;53.484;10.216;2024-03-06T02:58:19;5.20;99.90
13572;DHT22;6857;53.484;10.216;2024-03-06T03:00:44;5.00;99.90
13572;DHT22;6857;53.484;10.216;2024-03-06T03:03:10;5.00;99.90
13572;DHT22;6857;53.484;10.216;2024-03-06T03:05:39;5.00;99.90
13572;DHT22;6857;53.484;10.216;2024-03-06T03:08:06;4.40;99.90
13572;DHT22;6857;53.484;10.216;2024-03-06T03:10:32;5.00;99.90
13572;DHT22;6857;53.484;10.216;2024-03-06T03:12:59;4.90;99.90
13572;DHT22;6857;53.484;10.216;2024-03-06T03:15:25;4.90;99.90
13572;DHT22;6857;53.484;10.216;2024-03-06T03:17:51;4.80;99.90
13572;DHT22;6857;53.484;10.216;2024-03-06T03:20:17;4.70;99.90
13572;DHT22;6857;53.484;10.216;2024-03-06T03:22:42;4.70;99.90
13572;DHT22;6857;53.484;10.216;2024-03-06T03:25:09;4.70;99.90
13572;DHT22;6857;53.484;10.216;2024-03-06T03:27:36;3.90;99.90
13572;DHT22;6857;53.484;10.216;2024-03-06T03:30:02;4.60;99.90
13572;DHT22;6857;53.484;10.216;2024-03-06T03:32:28;4.60;99.90
13572;DHT22;6857;53.484;10.216;2024-03-06T03:34:54;4.50;99.90
13572;DHT22;6857;53.484;10.216;2024-03-06T03:37:19;4.50;99.90
13572;DHT22;6857;53.484;10.216;2024-03-06T03:39:46;4.50;99.90
13572;DHT22;6857;53.484;10.216;2024-03-06T03:42:11;4.40;99.90
13572;DHT22;6857;53.484;10.216;2024-03-06T03:44:37;4.40;99.90
13572;DHT22;6857;53.484;10.216;2024-03-06T03:47:02;4.40;99.90
13572;DHT22;6857;53.484;10.216;2024-03-06T03:49:28;4.30;99.90
13572;DHT22;6857;53.484;10.216;2024-03-06T03:51:53;4.40;99.90
13572;DHT22;6857;53.484;10.216;2024-03-06T03:54:19;4.30;99.90
13572;DHT22;6857;53.484;10.216;2024-03-06T03:56:44;4.30;99.90
13572;DHT22;6857;53.484;10.216;2024-03-06T03:59:10;4.30;99.90
13572;DHT22;6857;53.484;10.216;2024-03-06T04:01:36;4.30;99.90
13572;DHT22;6857;53.484;10.216;2024-03-06T04:04:01;4.20;99.90
13572;DHT22;6857;53.484;10.216;2024-03-06T04:06:27;4.10;99.90
13572;DHT22;6857;53.484;10.216;2024-03-06T04:08:52;4.20;99.90
13572;DHT22;6857;53.484;10.216;2024-03-06T04:11:18;4.20;99.90
13572;DHT22;6857;53.484;10.216;2024-03-06T04:13:43;4.20;99.90
13572;DHT22;6857;53.484;10.216;2024-03-06T04:16:09;4.10;99.90
13572;DHT22;6857;53.484;10.216;2024-03-06T04:18:35;4.10;99.90
13572;DHT22;6857;53.484;10.216;2024-03-06T04:21:07;4.10;99.90
13572;DHT22;6857;53.484;10.216;2024-03-06T04:23:33;4.10;99.90
13572;DHT22;6857;53.484;10.216;2024-03-06T04:25:59;4.00;99.90
13572;DHT22;6857;53.484;10.216;2024-03-06T04:28:25;4.00;99.90
13572;DHT22;6857;53.484;10.216;2024-03-06T04:30:50;4.00;99.90
13572;DHT22;6857;53.484;10.216;2024-03-06T04:33:16;4.00;99.90
13572;DHT22;6857;53.484;10.216;2024-03-06T04:35:41;3.90;99.90
13572;DHT22;6857;53.484;10.216;2024-03-06T04:38:07;3.90;99.90
13572;DHT22;6857;53.484;10.216;2024-03-06T04:40:34;3.90;99.90
13572;DHT22;6857;53.484;10.216;2024-03-06T04:43:02;3.80;99.90
13572;DHT22;6857;53.484;10.216;2024-03-06T04:45:28;3.80;99.90
13572;DHT22;6857;53.484;10.216;2024-03-06T04:47:54;3.80;99.90
13572;DHT22;6857;53.484;10.216;2024-03-06T04:50:20;3.80;99.90
13572;DHT22;6857;53.484;10.216;2024-03-06T04:52:46;3.80;99.90
13572;DHT22;6857;53.484;10.216;2024-03-06T04:55:11;3.70;99.90
13572;DHT22;6857;53.484;10.216;2024-03-06T04:57:38;3.70;99.90
13572;DHT22;6857;53.484;10.216;2024-03-06T05:00:06;3.70;99.90
13572;DHT22;6857;53.484;10.216;2024-03-06T05:02:33;3.70;99.90
13572;DHT22;6857;53.484;10.216;2024-03-06T05:05:01;3.50;99.90
13572;DHT22;6857;53.484;10.216;2024-03-06T05:07:28;3.60;99.90
13572;DHT22;6857;53.484;10.216;2024-03-06T05:09:54;3.60;99.90
13572;DHT22;6857;53.484;10.216;2024-03-06T05:12:19;3.60;99.90
13572;DHT22;6857;53.484;10.216;2024-03-06T05:14:45;3.60;99.90
13572;DHT22;6857;53.484;10.216;2024-03-06T05:17:10;3.60;99.90
13572;DHT22;6857;53.484;10.216;2024-03-06T05:19:36;3.60;99.90
13572;DHT22;6857;53.484;10.216;2024-03-06T05:22:02;3.60;99.90
13572;DHT22;6857;53.484;10.216;2024-03-06T05:24:28;3.50;99.90
13572;DHT22;6857;53.484;10.216;2024-03-06T05:26:54;3.60;99.90
13572;DHT22;6857;53.484;10.216;2024-03-06T05:29:20;3.60;99.90
13572;DHT22;6857;53.484;10.216;2024-03-06T05:31:45;3.50;99.90
13572;DHT22;6857;53.484;10.216;2024-03-06T05:34:11;3.50;99.90
13572;DHT22;6857;53.484;10.216;2024-03-06T05:36:36;3.30;99.90
13572;DHT22;6857;53.484;10.216;2024-03-06T05:39:02;3.30;99.90
13572;DHT22;6857;53.484;10.216;2024-03-06T05:41:32;3.30;99.90
13572;DHT22;6857;53.484;10.216;2024-03-06T05:43:58;3.20;99.90
13572;DHT22;6857;53.484;10.216;2024-03-06T05:46:23;3.10;99.90
13572;DHT22;6857;53.484;10.216;2024-03-06T05:48:49;3.00;99.90
13572;DHT22;6857;53.484;10.216;2024-03-06T05:51:15;2.90;99.90
13572;DHT22;6857;53.484;10.216;2024-03-06T05:53:41;2.80;99.90
13572;DHT22;6857;53.484;10.216;2024-03-06T05:56:09;2.80;99.90
13572;DHT22;6857;53.484;10.216;2024-03-06T05:58:34;2.70;99.90
13572;DHT22;6857;53.484;10.216;2024-03-06T06:01:00;2.70;99.90
13572;DHT22;6857;53.484;10.216;2024-03-06T06:03:27;2.70;99.90
13572;DHT22;6857;53.484;10.216;2024-03-06T06:05:53;2.70;99.90
13572;DHT22;6857;53.484;10.216;2024-03-06T06:08:19;2.70;99.90
13572;DHT22;6857;53.484;10.216;2024-03-06T06:10:44;2.80;99.90
13572;DHT22;6857;53.484;10.216;2024-03-06T06:13:10;2.90;99.90
13572;DHT22;6857;53.484;10.216;2024-03-06T06:15:36;3.10;99.90
13572;DHT22;6857;53.484;10.216;2024-03-06T06:18:01;3.40;99.90
13572;DHT22;6857;53.484;10.216;2024-03-06T06:20:27;3.10;99.90
13572;DHT22;6857;53.484;10.216;2024-03-06T06:22:52;3.10;99.90
13572;DHT22;6857;53.484;10.216;2024-03-06T06:25:18;3.20;99.90
13572;DHT22;6857;53.484;10.216;2024-03-06T06:27:44;3.20;99.90
13572;DHT22;6857;53.484;10.216;2024-03-06T06:30:10;3.30;99.90
13572;DHT22;6857;53.484;10.216;2024-03-06T06:32:37;3.20;99.90
13572;DHT22;6857;53.484;10.216;2024-03-06T06:35:06;3.30;99.90
13572;DHT22;6857;53.484;10.216;2024-03-06T06:37:32;3.40;99.90
13572;DHT22;6857;53.484;10.216;2024-03-06T06:39:59;3.50;99.90
13572;DHT22;6857;53.484;10.216;2024-03-06T06:42:25;3.50;99.90
13572;DHT22;6857;53.484;10.216;2024-03-06T06:44:51;3.50;99.90
13572;DHT22;6857;53.484;10.216;2024-03-06T06:47:17;3.60;99.90
13572;DHT22;6857;53.484;10.216;2024-03-06T06:49:42;3.60;99.90
13572;DHT22;6857;53.484;10.216;2024-03-06T06:52:08;3.60;99.90
13572;DHT22;6857;53.484;10.216;2024-03-06T06:54:33;3.60;99.90
13572;DHT22;6857;53.484;10.216;2024-03-06T06:56:59;3.70;99.90
13572;DHT22;6857;53.484;10.216;2024-03-06T06:59:24;3.80;99.90
13572;DHT22;6857;53.484;10.216;2024-03-06T07:01:50;3.80;99.90
13572;DHT22;6857;53.484;10.216;2024-03-06T07:04:16;3.90;99.90
13572;DHT22;6857;53.484;10.216;2024-03-06T07:06:45;3.90;99.90
13572;DHT22;6857;53.484;10.216;2024-03-06T07:09:12;4.00;99.90
13572;DHT22;6857;53.484;10.216;2024-03-06T07:11:37;4.00;99.90
13572;DHT22;6857;53.484;10.216;2024-03-06T07:14:03;4.10;99.90
13572;DHT22;6857;53.484;10.216;2024-03-06T07:16:28;4.10;99.90
13572;DHT22;6857;53.484;10.216;2024-03-06T07:18:54;4.20;99.90
13572;DHT22;6857;53.484;10.216;2024-03-06T07:21:19;4.20;99.90
13572;DHT22;6857;53.484;10.216;2024-03-06T07:23:45;4.30;99.90
13572;DHT22;6857;53.484;10.216;2024-03-06T07:26:10;4.30;99.90
13572;DHT22;6857;53.484;10.216;2024-03-06T07:28:36;4.40;99.90
13572;DHT22;6857;53.484;10.216;2024-03-06T07:31:03;4.40;99.90
13572;DHT22;6857;53.484;10.216;2024-03-06T07:33:30;4.50;99.90
13572;DHT22;6857;53.484;10.216;2024-03-06T07:35:56;4.50;99.90
13572;DHT22;6857;53.484;10.216;2024-03-06T07:38:22;5.50;99.90
13572;DHT22;6857;53.484;10.216;2024-03-06T07:40:48;6.40;99.90
13572;DHT22;6857;53.484;10.216;2024-03-06T07:43:14;7.10;99.90
13572;DHT22;6857;53.484;10.216;2024-03-06T07:45:39;7.60;99.90
13572;DHT22;6857;53.484;10.216;2024-03-06T07:48:05;7.50;99.90
13572;DHT22;6857;53.484;10.216;2024-03-06T07:50:31;6.90;99.90
13572;DHT22;6857;53.484;10.216;2024-03-06T07:52:56;6.60;99.90
13572;DHT22;6857;53.484;10.216;2024-03-06T07:55:22;6.10;99.90
13572;DHT22;6857;53.484;10.216;2024-03-06T07:57:48;5.80;99.90
13572;DHT22;6857;53.484;10.216;2024-03-06T08:00:14;5.60;99.90
13572;DHT22;6857;53.484;10.216;2024-03-06T08:02:42;5.50;99.90
13572;DHT22;6857;53.484;10.216;2024-03-06T08:05:12;5.40;99.90
13572;DHT22;6857;53.484;10.216;2024-03-06T08:07:40;5.40;99.90
13572;DHT22;6857;53.484;10.216;2024-03-06T08:10:11;5.40;99.90
13572;DHT22;6857;53.484;10.216;2024-03-06T08:12:42;5.40;99.90
13572;DHT22;6857;53.484;10.216;2024-03-06T08:15:09;5.50;99.90
13572;DHT22;6857;53.484;10.216;2024-03-06T08:20:03;5.60;99.90
13572;DHT22;6857;53.484;10.216;2024-03-06T08:22:34;5.80;99.90
13572;DHT22;6857;53.484;10.216;2024-03-06T08:25:12;5.70;99.90
13572;DHT22;6857;53.484;10.216;2024-03-06T08:27:41;5.70;99.90
13572;DHT22;6857;53.484;10.216;2024-03-06T08:30:08;6.30;99.90
13572;DHT22;6857;53.484;10.216;2024-03-06T08:32:35;6.00;99.90
13572;DHT22;6857;53.484;10.216;2024-03-06T08:35:11;6.00;99.90
13572;DHT22;6857;53.484;10.216;2024-03-06T08:37:39;6.00;99.90
13572;DHT22;6857;53.484;10.216;2024-03-06T08:40:05;5.90;99.90
13572;DHT22;6857;53.484;10.216;2024-03-06T08:42:36;5.80;99.90
13572;DHT22;6857;53.484;10.216;2024-03-06T08:45:02;5.90;99.90
13572;DHT22;6857;53.484;10.216;2024-03-06T08:47:27;6.00;99.90
13572;DHT22;6857;53.484;10.216;2024-03-06T08:49:53;6.00;99.90
13572;DHT22;6857;53.484;10.216;2024-03-06T08:52:20;6.10;99.90
13572;DHT22;6857;53.484;10.216;2024-03-06T08:54:46;6.20;99.90
13572;DHT22;6857;53.484;10.216;2024-03-06T08:57:12;6.10;99.90
13572;DHT22;6857;53.484;10.216;2024-03-06T08:59:38;6.10;99.90
13572;DHT22;6857;53.484;10.216;2024-03-06T09:02:18;6.30;99.90
13572;DHT22;6857;53.484;10.216;2024-03-06T09:04:45;6.40;99.90
13572;DHT22;6857;53.484;10.216;2024-03-06T09:07:11;6.50;99.90
13572;DHT22;6857;53.484;10.216;2024-03-06T09:09:37;6.60;99.90
13572;DHT22;6857;53.484;10.216;2024-03-06T09:12:07;6.60;99.90
13572;DHT22;6857;53.484;10.216;2024-03-06T09:14:36;6.80;99.90
13572;DHT22;6857;53.484;10.216;2024-03-06T09:17:02;7.00;99.90
13572;DHT22;6857;53.484;10.216;2024-03-06T09:19:28;7.30;99.90
13572;DHT22;6857;53.484;10.216;2024-03-06T09:21:54;7.30;99.90
13572;DHT22;6857;53.484;10.216;2024-03-06T09:24:21;7.20;99.90
13572;DHT22;6857;53.484;10.216;2024-03-06T09:26:48;7.10;99.90
13572;DHT22;6857;53.484;10.216;2024-03-06T09:29:14;7.20;99.90
13572;DHT22;6857;53.484;10.216;2024-03-06T09:31:41;7.30;99.90
13572;DHT22;6857;53.484;10.216;2024-03-06T09:34:07;7.40;99.90
13572;DHT22;6857;53.484;10.216;2024-03-06T09:36:32;7.50;99.90
13572;DHT22;6857;53.484;10.216;2024-03-06T09:38:59;7.50;99.90
13572;DHT22;6857;53.484;10.216;2024-03-06T09:41:24;7.70;99.90
13572;DHT22;6857;53.484;10.216;2024-03-06T09:43:50;7.60;99.90
13572;DHT22;6857;53.484;10.216;2024-03-06T09:46:17;7.80;99.90
13572;DHT22;6857;53.484;10.216;2024-03-06T09:48:47;7.40;99.90
13572;DHT22;6857;53.484;10.216;2024-03-06T09:51:13;7.30;99.90
13572;DHT22;6857;53.484;10.216;2024-03-06T09:53:40;7.20;99.90
13572;DHT22;6857;53.484;10.216;2024-03-06T09:56:06;7.30;99.90
13572;DHT22;6857;53.484;10.216;2024-03-06T09:58:37;7.50;99.90
13572;DHT22;6857;53.484;10.216;2024-03-06T10:01:03;7.70;99.90
13572;DHT22;6857;53.484;10.216;2024-03-06T10:03:32;7.50;99.90
13572;DHT22;6857;53.484;10.216;2024-03-06T10:05:58;7.50;99.90
13572;DHT22;6857;53.484;10.216;2024-03-06T10:08:24;7.60;99.90
13572;DHT22;6857;53.484;10.216;2024-03-06T10:10:52;7.50;99.90
13572;DHT22;6857;53.484;10.216;2024-03-06T10:13:18;7.40;99.90
13572;DHT22;6857;53.484;10.216;2024-03-06T10:16:01;7.40;99.90
13572;DHT22;6857;53.484;10.216;2024-03-06T10:18:31;7.40;99.90
13572;DHT22;6857;53.484;10.216;2024-03-06T10:20:58;7.10;99.90
13572;DHT22;6857;53.484;10.216;2024-03-06T10:23:24;6.80;99.90
13572;DHT22;6857;53.484;10.216;2024-03-06T10:25:50;6.90;99.90
13572;DHT22;6857;53.484;10.216;2024-03-06T10:28:18;6.90;99.90
13572;DHT22;6857;53.484;10.216;2024-03-06T10:30:44;6.90;99.90
13572;DHT22;6857;53.484;10.216;2024-03-06T10:33:15;7.00;99.90
13572;DHT22;6857;53.484;10.216;2024-03-06T10:35:45;7.20;99.90
13572;DHT22;6857;53.484;10.216;2024-03-06T10:38:12;7.30;99.90
13572;DHT22;6857;53.484;10.216;2024-03-06T10:40:39;7.30;99.90
13572;DHT22;6857;53.484;10.216;2024-03-06T10:43:06;7.10;99.90
13572;DHT22;6857;53.484;10.216;2024-03-06T10:45:48;7.10;99.90
13572;DHT22;6857;53.484;10.216;2024-03-06T10:48:15;7.30;99.90
13572;DHT22;6857;53.484;10.216;2024-03-06T10:50:42;7.50;99.90
13572;DHT22;6857;53.484;10.216;2024-03-06T10:53:12;7.50;99.90
13572;DHT22;6857;53.484;10.216;2024-03-06T10:55:39;7.40;99.90
13572;DHT22;6857;53.484;10.216;2024-03-06T10:58:08;7.60;99.90
13572;DHT22;6857;53.484;10.216;2024-03-06T11:00:41;7.80;99.90
13572;DHT22;6857;53.484;10.216;2024-03-06T11:03:10;7.90;99.90
13572;DHT22;6857;53.484;10.216;2024-03-06T11:05:39;7.80;99.90
13572;DHT22;6857;53.484;10.216;2024-03-06T11:08:09;7.70;99.90
13572;DHT22;6857;53.484;10.216;2024-03-06T11:10:37;7.60;99.90
13572;DHT22;6857;53.484;10.216;2024-03-06T11:13:08;7.70;99.90
13572;DHT22;6857;53.484;10.216;2024-03-06T11:15:34;7.80;99.90
13572;DHT22;6857;53.484;10.216;2024-03-06T11:23:32;8.50;99.90
13572;DHT22;6857;53.484;10.216;2024-03-06T11:26:02;8.60;99.90
13572;DHT22;6857;53.484;10.216;2024-03-06T11:28:34;8.60;99.90
13572;DHT22;6857;53.484;10.216;2024-03-06T11:31:01;8.40;99.90
13572;DHT22;6857;53.484;10.216;2024-03-06T11:33:37;8.40;99.90
13572;DHT22;6857;53.484;10.216;2024-03-06T11:36:28;8.40;99.90
13572;DHT22;6857;53.484;10.216;2024-03-06T11:39:01;8.50;99.90
13572;DHT22;6857;53.484;10.216;2024-03-06T11:41:30;8.60;99.90
13572;DHT22;6857;53.484;10.216;2024-03-06T11:43:58;8.50;99.90
13572;DHT22;6857;53.484;10.216;2024-03-06T11:46:45;8.60;99.90
13572;DHT22;6857;53.484;10.216;2024-03-06T11:49:31;8.90;99.90
13572;DHT22;6857;53.484;10.216;2024-03-06T11:52:06;9.40;99.90
13572;DHT22;6857;53.484;10.216;2024-03-06T11:54:33;9.50;99.90
13572;DHT22;6857;53.484;10.216;2024-03-06T11:57:00;9.50;99.90
13572;DHT22;6857;53.484;10.216;2024-03-06T11:59:27;9.60;99.90
13572;DHT22;6857;53.484;10.216;2024-03-06T12:01:55;9.30;99.90
13572;DHT22;6857;53.484;10.216;2024-03-06T12:04:21;9.20;99.90
13572;DHT22;6857;53.484;10.216;2024-03-06T12:06:47;9.10;99.90
13572;DHT22;6857;53.484;10.216;2024-03-06T12:09:14;9.20;99.90
13572;DHT22;6857;53.484;10.216;2024-03-06T12:11:40;9.20;99.90
13572;DHT22;6857;53.484;10.216;2024-03-06T12:14:13;9.10;99.90
13572;DHT22;6857;53.484;10.216;2024-03-06T12:16:40;9.10;99.90
13572;DHT22;6857;53.484;10.216;2024-03-06T12:19:05;9.10;99.90
13572;DHT22;6857;53.484;10.216;2024-03-06T12:21:31;9.10;99.90
13572;DHT22;6857;53.484;10.216;2024-03-06T12:24:08;8.90;99.90
13572;DHT22;6857;53.484;10.216;2024-03-06T12:26:34;8.70;99.90
13572;DHT22;6857;53.484;10.216;2024-03-06T12:29:09;8.70;99.90
13572;DHT22;6857;53.484;10.216;2024-03-06T12:31:37;8.70;99.90
13572;DHT22;6857;53.484;10.216;2024-03-06T12:34:04;8.70;99.90
13572;DHT22;6857;53.484;10.216;2024-03-06T12:36:30;8.60;99.90
13572;DHT22;6857;53.484;10.216;2024-03-06T12:38:58;8.90;99.90
13572;DHT22;6857;53.484;10.216;2024-03-06T12:41:24;8.80;99.90
13572;DHT22;6857;53.484;10.216;2024-03-06T12:43:51;8.90;99.90
13572;DHT22;6857;53.484;10.216;2024-03-06T12:46:17;9.00;99.90
13572;DHT22;6857;53.484;10.216;2024-03-06T12:48:43;9.10;99.90
13572;DHT22;6857;53.484;10.216;2024-03-06T12:51:10;9.20;99.90
13572;DHT22;6857;53.484;10.216;2024-03-06T12:53:35;9.20;99.90
13572;DHT22;6857;53.484;10.216;2024-03-06T12:56:01;9.10;99.90
13572;DHT22;6857;53.484;10.216;2024-03-06T12:58:27;9.10;99.90
13572;DHT22;6857;53.484;10.216;2024-03-06T13:00:52;9.00;99.90
13572;DHT22;6857;53.484;10.216;2024-03-06T13:03:19;9.00;99.90
13572;DHT22;6857;53.484;10.216;2024-03-06T13:05:45;9.00;99.90
13572;DHT22;6857;53.484;10.216;2024-03-06T13:08:11;9.30;99.90
13572;DHT22;6857;53.484;10.216;2024-03-06T13:10:40;9.60;99.90
13572;DHT22;6857;53.484;10.216;2024-03-06T13:13:05;9.60;99.90
13572;DHT22;6857;53.484;10.216;2024-03-06T13:15:32;9.40;99.90
13572;DHT22;6857;53.484;10.216;2024-03-06T13:17:59;9.40;99.90
13572;DHT22;6857;53.484;10.216;2024-03-06T13:20:26;9.10;99.90
13572;DHT22;6857;53.484;10.216;2024-03-06T13:22:51;9.00;99.90
13572;DHT22;6857;53.484;10.216;2024-03-06T13:25:17;9.20;99.90
13572;DHT22;6857;53.484;10.216;2024-03-06T13:27:42;9.50;99.90
13572;DHT22;6857;53.484;10.216;2024-03-06T13:30:08;9.80;99.90
13572;DHT22;6857;53.484;10.216;2024-03-06T13:32:34;10.60;99.90
13572;DHT22;6857;53.484;10.216;2024-03-06T13:34:59;11.30;99.90
13572;DHT22;6857;53.484;10.216;2024-03-06T13:37:25;11.10;99.90
13572;DHT22;6857;53.484;10.216;2024-03-06T13:39:50;10.80;99.90
13572;DHT22;6857;53.484;10.216;2024-03-06T13:42:18;10.60;99.90
13572;DHT22;6857;53.484;10.216;2024-03-06T13:44:44;11.00;99.90
13572;DHT22;6857;53.484;10.216;2024-03-06T13:47:14;11.80;99.90
13572;DHT22;6857;53.484;10.216;2024-03-06T13:49:42;11.70;99.90
13572;DHT22;6857;53.484;10.216;2024-03-06T13:52:09;11.50;99.90
13572;DHT22;6857;53.484;10.216;2024-03-06T13:54:42;11.30;99.90
13572;DHT22;6857;53.484;10.216;2024-03-06T13:57:09;11.40;99.90
13572;DHT22;6857;53.484;10.216;2024-03-06T13:59:35;11.60;99.90
13572;DHT22;6857;53.484;10.216;2024-03-06T14:02:01;12.00;99.90
13572;DHT22;6857;53.484;10.216;2024-03-06T14:04:28;12.00;99.90
13572;DHT22;6857;53.484;10.216;2024-03-06T14:06:54;11.50;99.90
13572;DHT22;6857;53.484;10.216;2024-03-06T14:09:20;11.30;99.90
13572;DHT22;6857;53.484;10.216;2024-03-06T14:11:45;10.90;99.90
13572;DHT22;6857;53.484;10.216;2024-03-06T14:14:11;10.90;99.90
13572;DHT22;6857;53.484;10.216;2024-03-06T14:16:38;11.00;99.90
13572;DHT22;6857;53.484;10.216;2024-03-06T14:19:05;11.70;99.90
13572;DHT22;6857;53.484;10.216;2024-03-06T14:21:32;11.50;99.90
13572;DHT22;6857;53.484;10.216;2024-03-06T14:24:00;11.50;99.90
13572;DHT22;6857;53.484;10.216;2024-03-06T14:26:31;11.70;99.90
13572;DHT22;6857;53.484;10.216;2024-03-06T14:28:58;11.50;99.90
13572;DHT22;6857;53.484;10.216;2024-03-06T14:31:23;11.20;99.90
13572;DHT22;6857;53.484;10.216;2024-03-06T14:33:49;10.80;99.90
13572;DHT22;6857;53.484;10.216;2024-03-06T14:36:16;10.30;99.90
13572;DHT22;6857;53.484;10.216;2024-03-06T14:38:42;10.80;99.90
13572;DHT22;6857;53.484;10.216;2024-03-06T14:41:07;8.90;99.90
13572;DHT22;6857;53.484;10.216;2024-03-06T14:43:34;9.90;99.90
13572;DHT22;6857;53.484;10.216;2024-03-06T14:46:01;10.00;99.90
13572;DHT22;6857;53.484;10.216;2024-03-06T14:48:26;10.30;99.90
13572;DHT22;6857;53.484;10.216;2024-03-06T14:50:52;10.70;99.90
13572;DHT22;6857;53.484;10.216;2024-03-06T14:53:18;11.10;99.90
13572;DHT22;6857;53.484;10.216;2024-03-06T14:55:43;11.20;99.90
13572;DHT22;6857;53.484;10.216;2024-03-06T14:58:09;11.50;99.90
13572;DHT22;6857;53.484;10.216;2024-03-06T15:00:34;11.70;99.90
13572;DHT22;6857;53.484;10.216;2024-03-06T15:03:00;12.00;99.90
13572;DHT22;6857;53.484;10.216;2024-03-06T15:05:27;12.10;99.90
13572;DHT22;6857;53.484;10.216;2024-03-06T15:07:53;12.00;99.90
13572;DHT22;6857;53.484;10.216;2024-03-06T15:10:19;12.00;99.90
13572;DHT22;6857;53.484;10.216;2024-03-06T15:12:45;11.70;99.90
13572;DHT22;6857;53.484;10.216;2024-03-06T15:15:11;11.50;99.90
13572;DHT22;6857;53.484;10.216;2024-03-06T15:17:37;11.10;99.90
13572;DHT22;6857;53.484;10.216;2024-03-06T15:20:06;11.00;99.90
13572;DHT22;6857;53.484;10.216;2024-03-06T15:22:35;11.10;99.90
13572;DHT22;6857;53.484;10.216;2024-03-06T15:25:07;11.20;99.90
13572;DHT22;6857;53.484;10.216;2024-03-06T15:27:34;11.30;99.90
13572;DHT22;6857;53.484;10.216;2024-03-06T15:29:59;11.30;99.90
13572;DHT22;6857;53.484;10.216;2024-03-06T15:32:25;11.10;99.90
13572;DHT22;6857;53.484;10.216;2024-03-06T15:34:51;10.70;99.90
13572;DHT22;6857;53.484;10.216;2024-03-06T15:37:18;10.30;99.90
13572;DHT22;6857;53.484;10.216;2024-03-06T15:39:44;10.40;99.90
13572;DHT22;6857;53.484;10.216;2024-03-06T15:42:09;10.70;99.90
13572;DHT22;6857;53.484;10.216;2024-03-06T15:44:36;10.70;99.90
13572;DHT22;6857;53.484;10.216;2024-03-06T15:47:01;10.60;99.90
13572;DHT22;6857;53.484;10.216;2024-03-06T15:49:29;9.80;99.90